createdAt,value
2022-11-28T00:02:21.226Z,9.10
2022-11-28T00:05:06.671Z,8.23
2022-11-28T00:07:51.739Z,7.30
2022-11-28T00:10:40.773Z,7.65
2022-11-28T00:13:25.971Z,6.80
2022-11-28T00:16:21.190Z,6.40
2022-11-28T00:19:06.610Z,6.80
2022-11-28T00:21:51.865Z,9.80
2022-11-28T00:24:37.023Z,6.40
2022-11-28T00:27:22.035Z,6.95
2022-11-28T00:30:07.883Z,6.67
2022-11-28T00:32:52.854Z,8.00
2022-11-28T00:35:37.873Z,9.23
2022-11-28T00:38:22.870Z,6.68
2022-11-28T00:41:11.657Z,7.45
2022-11-28T00:43:57.418Z,8.67
2022-11-28T00:46:42.678Z,10.52
2022-11-28T00:49:27.853Z,6.53
2022-11-28T00:52:13.173Z,7.63
2022-11-28T00:54:58.059Z,6.38
2022-11-28T00:57:43.135Z,10.13
2022-11-28T01:00:28.080Z,7.03
2022-11-28T01:03:13.222Z,7.28
2022-11-28T01:05:58.538Z,9.63
2022-11-28T01:08:43.539Z,7.63
2022-11-28T01:11:29.350Z,9.70
2022-11-28T01:14:15.059Z,10.98
2022-11-28T01:16:59.859Z,7.68
2022-11-28T01:19:44.935Z,11.13
2022-11-28T01:22:29.863Z,8.95
2022-11-28T01:25:14.996Z,12.70
2022-11-28T01:28:00.079Z,4.88
2022-11-28T01:30:45.144Z,8.43
2022-11-28T01:33:29.966Z,7.60
2022-11-28T01:36:19.506Z,9.70
2022-11-28T01:39:04.745Z,9.17
2022-11-28T01:41:49.794Z,6.70
2022-11-28T01:44:34.865Z,8.07
2022-11-28T01:47:27.703Z,7.30
2022-11-28T01:50:12.932Z,6.93
2022-11-28T01:53:01.506Z,7.13
2022-11-28T01:55:56.978Z,7.20
2022-11-28T01:58:46.472Z,8.07
2022-11-28T02:01:31.690Z,8.32
2022-11-28T02:04:16.863Z,4.45
2022-11-28T02:07:01.953Z,6.13
2022-11-28T02:09:47.060Z,7.88
2022-11-28T02:12:51.197Z,8.85
2022-11-28T02:16:00.720Z,7.43
2022-11-28T02:19:21.664Z,8.48
2022-11-28T02:22:21.822Z,6.57
2022-11-28T02:25:47.770Z,7.00
2022-11-28T02:28:38.820Z,7.90
2022-11-28T02:32:03.465Z,6.70
2022-11-28T02:34:57.054Z,5.78
2022-11-28T02:37:52.242Z,7.23
2022-11-28T02:40:37.418Z,7.70
2022-11-28T02:43:33.184Z,9.13
2022-11-28T02:46:28.289Z,7.93
2022-11-28T02:49:22.354Z,7.53
2022-11-28T02:52:12.834Z,7.60
2022-11-28T02:54:59.484Z,11.75
2022-11-28T02:57:50.205Z,8.77
2022-11-28T03:00:38.214Z,8.15
2022-11-28T03:03:28.800Z,6.93
2022-11-28T03:06:38.511Z,6.53
2022-11-28T03:09:34.895Z,9.23
2022-11-28T03:12:30.246Z,6.95
2022-11-28T03:15:19.895Z,6.97
2022-11-28T03:18:14.511Z,6.70
2022-11-28T03:21:21.836Z,5.30
2022-11-28T03:24:26.511Z,6.28
2022-11-28T03:27:30.585Z,6.65
2022-11-28T03:30:37.833Z,8.77
2022-11-28T03:33:27.422Z,6.07
2022-11-28T03:36:18.142Z,7.43
2022-11-28T03:39:10.987Z,9.18
2022-11-28T03:42:03.168Z,12.15
2022-11-28T03:44:54.304Z,7.85
2022-11-28T03:47:54.754Z,8.05
2022-11-28T03:50:45.606Z,9.73
2022-11-28T03:53:38.564Z,6.38
2022-11-28T03:56:33.563Z,6.80
2022-11-28T03:59:35.784Z,6.45
2022-11-28T04:02:33.406Z,8.38
2022-11-28T04:05:24.790Z,8.57
2022-11-28T04:08:30.883Z,6.65
2022-11-28T04:11:20.966Z,7.95
2022-11-28T04:14:26.337Z,8.55
2022-11-28T04:17:38.065Z,7.97
2022-11-28T04:20:55.214Z,7.53
2022-11-28T04:23:43.899Z,7.82
2022-11-28T04:26:33.642Z,7.95
2022-11-28T04:29:23.317Z,5.10
2022-11-28T04:32:10.274Z,8.02
2022-11-28T04:35:05.033Z,10.00
2022-11-28T04:37:51.415Z,6.75
2022-11-28T04:40:50.133Z,8.70
2022-11-28T04:43:43.021Z,9.32
2022-11-28T04:46:35.520Z,8.73
2022-11-28T04:49:21.397Z,5.70
2022-11-28T04:52:29.395Z,8.07
2022-11-28T04:55:38.087Z,9.05
2022-11-28T04:58:34.191Z,8.63
2022-11-28T05:01:25.479Z,7.97
2022-11-28T05:04:10.856Z,8.87
2022-11-28T05:07:06.048Z,8.10
2022-11-28T05:09:51.425Z,7.55
2022-11-28T05:12:36.509Z,13.27
2022-11-28T05:15:21.517Z,9.15
2022-11-28T05:18:06.811Z,9.07
2022-11-28T05:20:52.103Z,9.57
2022-11-28T05:23:43.127Z,8.27
2022-11-28T05:26:32.069Z,8.10
2022-11-28T05:29:17.336Z,7.45
2022-11-28T05:32:02.560Z,7.07
2022-11-28T05:34:47.503Z,9.88
2022-11-28T05:37:32.533Z,10.65
2022-11-28T05:40:17.775Z,11.73
2022-11-28T05:43:02.623Z,10.48
2022-11-28T05:45:47.699Z,10.17
2022-11-28T05:48:32.588Z,8.85
2022-11-28T05:51:19.802Z,6.53
2022-11-28T05:54:05.466Z,10.88
2022-11-28T05:56:50.695Z,8.55
2022-11-28T05:59:35.991Z,12.27
2022-11-28T06:02:21.383Z,9.35
2022-11-28T06:05:21.329Z,10.00
2022-11-28T06:08:12.310Z,8.35
2022-11-28T06:10:58.269Z,10.07
2022-11-28T06:13:44.634Z,9.83
2022-11-28T06:16:30.676Z,10.55
2022-11-28T06:19:15.654Z,9.88
2022-11-28T06:22:01.648Z,10.15
2022-11-28T06:24:46.800Z,12.32
2022-11-28T06:27:31.707Z,7.90
2022-11-28T06:30:17.206Z,9.15
2022-11-28T06:33:02.244Z,9.98
2022-11-28T06:35:47.377Z,11.48
2022-11-28T06:38:33.004Z,14.43
2022-11-28T06:41:19.411Z,9.97
2022-11-28T06:44:04.432Z,7.10
2022-11-28T06:46:49.533Z,7.85
2022-11-28T06:49:35.581Z,9.93
2022-11-28T06:52:20.527Z,11.85
2022-11-28T06:55:05.749Z,8.20
2022-11-28T06:57:50.609Z,12.15
2022-11-28T07:00:36.472Z,10.52
2022-11-28T07:03:21.653Z,9.95
2022-11-28T07:06:07.622Z,11.60
2022-11-28T07:08:53.480Z,8.87
2022-11-28T07:11:41.854Z,9.80
2022-11-28T07:14:27.208Z,8.27
2022-11-28T07:17:11.991Z,10.50
2022-11-28T07:19:57.178Z,10.73
2022-11-28T07:22:43.582Z,10.37
2022-11-28T07:25:28.760Z,10.27
2022-11-28T07:28:13.934Z,9.18
2022-11-28T07:31:05.327Z,10.13
2022-11-28T07:33:51.072Z,11.98
2022-11-28T07:36:36.685Z,13.20
2022-11-28T07:39:21.838Z,9.70
2022-11-28T07:42:06.907Z,8.85
2022-11-28T07:44:51.959Z,9.90
2022-11-28T07:47:37.158Z,6.93
2022-11-28T07:50:22.182Z,9.93
2022-11-28T07:53:07.531Z,10.23
2022-11-28T07:55:52.535Z,8.35
2022-11-28T07:58:38.859Z,8.38
2022-11-28T08:01:28.101Z,8.50
2022-11-28T08:04:13.055Z,8.67
2022-11-28T08:06:58.065Z,7.78
2022-11-28T08:09:43.515Z,10.73
2022-11-28T08:12:28.695Z,10.77
2022-11-28T08:15:13.744Z,9.20
2022-11-28T08:17:58.912Z,10.97
2022-11-28T08:20:43.993Z,8.88
2022-11-28T08:23:28.849Z,8.32
2022-11-28T08:26:15.793Z,12.65
2022-11-28T08:29:02.571Z,8.75
2022-11-28T08:31:47.509Z,12.13
2022-11-28T08:34:32.378Z,11.25
2022-11-28T08:37:17.430Z,10.25
2022-11-28T08:40:02.772Z,14.13
2022-11-28T08:42:47.690Z,12.55
2022-11-28T08:45:32.631Z,10.53
2022-11-28T08:48:17.807Z,12.18
2022-11-28T08:51:03.783Z,12.38
2022-11-28T08:53:49.738Z,10.43
2022-11-28T08:56:35.457Z,11.48
2022-11-28T08:59:20.605Z,12.13
2022-11-28T09:02:05.785Z,11.60
2022-11-28T09:04:50.646Z,10.25
2022-11-28T09:07:35.685Z,10.30
2022-11-28T09:10:21.054Z,13.77
2022-11-28T09:13:07.008Z,8.87
2022-11-28T09:15:53.762Z,9.52
2022-11-28T09:18:38.910Z,11.02
2022-11-28T09:21:24.013Z,14.85
2022-11-28T09:24:09.609Z,10.98
2022-11-28T09:26:54.409Z,10.93
2022-11-28T09:29:39.462Z,10.15
2022-11-28T09:32:24.710Z,11.05
2022-11-28T09:35:09.912Z,11.57
2022-11-28T09:37:55.169Z,11.23
2022-11-28T09:40:43.313Z,9.40
2022-11-28T09:43:28.200Z,9.85
2022-11-28T09:46:22.661Z,10.32
2022-11-28T09:49:21.958Z,9.60
2022-11-28T09:52:26.616Z,9.43
2022-11-28T09:55:17.626Z,9.70
2022-11-28T09:58:12.485Z,9.73
2022-11-28T10:01:30.095Z,10.00
2022-11-28T10:04:26.474Z,12.23
2022-11-28T10:07:55.008Z,9.82
2022-11-28T10:11:01.721Z,11.00
2022-11-28T10:14:15.586Z,9.18
2022-11-28T10:17:05.639Z,13.02
2022-11-28T10:19:57.289Z,14.48
2022-11-28T10:22:53.879Z,14.27
2022-11-28T10:25:43.879Z,8.90
2022-11-28T10:28:34.507Z,11.32
2022-11-28T10:31:34.749Z,10.60
2022-11-28T10:34:28.228Z,16.00
2022-11-28T10:37:24.619Z,11.02
2022-11-28T10:40:28.070Z,13.80
2022-11-28T10:43:28.888Z,10.13
2022-11-28T10:46:55.478Z,10.77
2022-11-28T10:50:04.427Z,13.35
2022-11-28T10:53:14.698Z,11.70
2022-11-28T10:56:11.717Z,8.87
2022-11-28T10:59:31.061Z,11.43
2022-11-28T11:02:32.155Z,9.23
2022-11-28T11:05:24.278Z,10.15
2022-11-28T11:08:20.319Z,10.45
2022-11-28T11:11:37.011Z,9.97
2022-11-28T11:14:33.865Z,11.95
2022-11-28T11:17:36.299Z,9.00
2022-11-28T11:20:37.825Z,11.35
2022-11-28T11:23:23.082Z,11.07
2022-11-28T11:26:19.570Z,14.93
2022-11-28T11:29:05.455Z,10.20
2022-11-28T11:31:53.069Z,8.77
2022-11-28T11:34:44.107Z,9.80
2022-11-28T11:37:37.641Z,10.77
2022-11-28T11:40:28.986Z,11.97
2022-11-28T11:43:29.027Z,11.85
2022-11-28T11:46:15.832Z,10.98
2022-11-28T11:49:00.771Z,11.40
2022-11-28T11:51:56.180Z,10.13
2022-11-28T11:55:07.015Z,10.00
2022-11-28T11:57:54.479Z,11.70
2022-11-28T12:00:40.369Z,10.80
2022-11-28T12:03:48.305Z,10.43
2022-11-28T12:06:55.146Z,13.95
2022-11-28T12:09:49.246Z,10.57
2022-11-28T12:12:38.366Z,12.80
2022-11-28T12:15:41.666Z,10.95
2022-11-28T12:18:49.070Z,11.13
2022-11-28T12:21:49.450Z,10.70
2022-11-28T12:24:50.541Z,11.47
2022-11-28T12:27:52.746Z,10.00
2022-11-28T12:31:08.347Z,8.80
2022-11-28T12:34:13.369Z,15.02
2022-11-28T12:37:16.133Z,12.30
2022-11-28T12:40:18.866Z,9.80
2022-11-28T12:43:30.281Z,12.07
2022-11-28T12:46:36.628Z,10.95
2022-11-28T12:49:52.125Z,9.75
2022-11-28T12:52:55.944Z,14.68
2022-11-28T12:55:51.047Z,9.77
2022-11-28T12:58:58.579Z,10.70
2022-11-28T13:01:55.192Z,8.63
2022-11-28T13:04:53.965Z,12.63
2022-11-28T13:08:05.890Z,10.27
2022-11-28T13:11:27.818Z,13.13
2022-11-28T13:14:31.893Z,9.65
2022-11-28T13:17:55.622Z,11.30
2022-11-28T13:21:05.215Z,8.82
2022-11-28T13:24:06.600Z,8.95
2022-11-28T13:27:09.280Z,11.23
2022-11-28T13:30:13.010Z,14.38
2022-11-28T13:33:07.081Z,12.73
2022-11-28T13:35:52.754Z,13.80
2022-11-28T13:39:12.961Z,11.70
2022-11-28T13:42:28.875Z,12.93
2022-11-28T13:45:35.795Z,13.10
2022-11-28T13:52:18.076Z,10.15
2022-11-28T13:55:03.307Z,12.65
2022-11-28T13:57:48.746Z,12.90
2022-11-28T14:00:34.082Z,12.73
2022-11-28T14:03:20.592Z,11.40
2022-11-28T14:06:07.113Z,11.50
2022-11-28T14:09:18.763Z,13.43
2022-11-28T14:12:22.117Z,10.40
2022-11-28T14:15:40.744Z,13.13
2022-11-28T14:18:56.660Z,11.57
2022-11-28T14:21:45.177Z,9.98
2022-11-28T14:24:55.205Z,13.95
2022-11-28T14:27:47.040Z,12.87
2022-11-28T14:30:38.457Z,13.02
2022-11-28T14:33:37.451Z,11.80
2022-11-28T14:36:24.635Z,10.02
2022-11-28T14:39:30.935Z,11.23
2022-11-28T14:42:36.780Z,12.83
2022-11-28T14:45:32.406Z,13.00
2022-11-28T14:48:32.172Z,12.70
2022-11-28T14:51:17.150Z,13.00
2022-11-28T14:54:02.385Z,12.32
2022-11-28T14:56:49.562Z,13.53
2022-11-28T14:59:39.809Z,11.25
2022-11-28T15:02:45.369Z,13.02
2022-11-28T15:05:37.772Z,13.00
2022-11-28T15:08:37.166Z,13.95
2022-11-28T15:11:40.963Z,17.70
2022-11-28T15:14:28.593Z,15.52
2022-11-28T15:17:14.770Z,12.30
2022-11-28T15:20:08.917Z,13.20
2022-11-28T15:22:54.289Z,13.20
2022-11-28T15:25:39.784Z,16.30
2022-11-28T15:28:28.210Z,13.20
2022-11-28T15:31:21.558Z,16.77
2022-11-28T15:34:10.100Z,11.00
2022-11-28T15:37:00.717Z,10.95
2022-11-28T15:39:48.030Z,10.60
2022-11-28T15:42:35.362Z,14.95
2022-11-28T15:45:25.796Z,9.80
2022-11-28T15:48:27.594Z,10.15
2022-11-28T15:51:26.793Z,12.25
2022-11-28T15:54:35.110Z,15.63
2022-11-28T15:57:25.862Z,13.80
2022-11-28T16:00:19.163Z,14.68
2022-11-28T16:03:05.641Z,15.95
2022-11-28T16:05:53.102Z,14.50
2022-11-28T16:08:48.962Z,16.17
2022-11-28T16:11:35.589Z,13.43
2022-11-28T16:14:28.756Z,16.95
2022-11-28T16:17:25.717Z,13.45
2022-11-28T16:20:34.611Z,11.43
2022-11-28T16:23:27.327Z,11.67
2022-11-28T16:26:36.094Z,15.75
2022-11-28T16:29:24.247Z,16.10
2022-11-28T16:32:21.601Z,15.32
2022-11-28T16:35:12.187Z,14.13
2022-11-28T16:38:25.898Z,15.60
2022-11-28T16:41:21.032Z,14.23
2022-11-28T16:44:11.542Z,16.23
2022-11-28T16:46:57.976Z,12.30
2022-11-28T16:50:05.211Z,15.13
2022-11-28T16:52:55.353Z,13.57
2022-11-28T16:55:41.258Z,15.73
2022-11-28T16:58:26.031Z,15.68
2022-11-28T17:01:11.203Z,15.82
2022-11-28T17:03:57.617Z,15.52
2022-11-28T17:06:42.653Z,16.30
2022-11-28T17:09:27.520Z,16.92
2022-11-28T17:12:24.798Z,14.27
2022-11-28T17:15:21.713Z,16.00
2022-11-28T17:18:06.760Z,16.50
2022-11-28T17:20:51.773Z,17.00
2022-11-28T17:23:36.922Z,19.88
2022-11-28T17:26:21.729Z,14.80
2022-11-28T17:29:10.809Z,15.13
2022-11-28T17:31:58.638Z,16.20
2022-11-28T17:34:45.914Z,14.67
2022-11-28T17:37:31.062Z,14.65
2022-11-28T17:40:36.406Z,13.88
2022-11-28T17:43:22.134Z,17.42
2022-11-28T17:46:07.521Z,17.65
2022-11-28T17:48:52.465Z,14.97
2022-11-28T17:51:37.970Z,17.02
2022-11-28T17:54:24.940Z,13.82
2022-11-28T17:57:09.890Z,15.93
2022-11-28T17:59:55.024Z,12.93
2022-11-28T18:02:40.568Z,17.03
2022-11-28T18:05:25.770Z,20.23
2022-11-28T18:08:11.027Z,18.23
2022-11-28T18:11:22.018Z,14.50
2022-11-28T18:14:07.168Z,19.02
2022-11-28T18:16:52.373Z,19.47
2022-11-28T18:19:37.568Z,19.90
2022-11-28T18:22:22.427Z,20.20
2022-11-28T18:25:08.192Z,22.60
2022-11-28T18:27:53.463Z,20.20
2022-11-28T18:30:46.585Z,21.73
2022-11-28T18:33:34.241Z,20.38
2022-11-28T18:36:22.240Z,17.25
2022-11-28T18:39:11.856Z,21.20
2022-11-28T18:41:59.786Z,30.27
2022-11-28T18:44:44.743Z,26.33
2022-11-28T18:47:29.737Z,23.25
2022-11-28T18:50:15.088Z,21.13
2022-11-28T18:53:00.689Z,22.42
2022-11-28T18:55:45.658Z,23.25
2022-11-28T18:58:34.646Z,21.73
2022-11-28T19:01:30.024Z,21.58
2022-11-28T19:04:16.651Z,22.45
2022-11-28T19:07:03.547Z,22.95
2022-11-28T19:09:48.547Z,21.58
2022-11-28T19:12:33.723Z,24.13
2022-11-28T19:15:18.834Z,25.10
2022-11-28T19:18:04.126Z,22.02
2022-11-28T19:20:49.258Z,21.95
2022-11-28T19:23:34.382Z,22.88
2022-11-28T19:26:21.686Z,24.43
2022-11-28T19:29:06.929Z,24.00
2022-11-28T19:31:51.865Z,27.20
2022-11-28T19:34:36.841Z,18.83
2022-11-28T19:37:21.689Z,21.90
2022-11-28T19:40:07.558Z,22.10
2022-11-28T19:42:52.302Z,29.38
2022-11-28T19:45:37.303Z,32.63
2022-11-28T19:48:22.723Z,34.70
2022-11-28T19:51:09.731Z,29.77
2022-11-28T19:53:59.874Z,31.03
2022-11-28T19:56:48.711Z,31.80
2022-11-28T19:59:33.742Z,32.65
2022-11-28T20:02:21.433Z,33.78
2022-11-28T20:05:06.442Z,30.48
2022-11-28T20:07:55.577Z,29.67
2022-11-28T20:10:43.695Z,32.80
2022-11-28T20:13:28.592Z,34.20
2022-11-28T20:16:17.456Z,34.28
2022-11-28T20:19:03.760Z,34.33
2022-11-28T20:21:48.509Z,31.70
2022-11-28T20:24:33.424Z,33.53
2022-11-28T20:27:18.514Z,30.70
2022-11-28T20:30:06.518Z,28.95
2022-11-28T20:32:54.077Z,29.85
2022-11-28T20:35:39.172Z,27.30
2022-11-28T20:38:24.042Z,27.35
2022-11-28T20:41:11.506Z,26.05
2022-11-28T20:43:58.326Z,26.98
2022-11-28T20:46:46.119Z,32.42
2022-11-28T20:49:31.373Z,31.67
2022-11-28T20:52:16.399Z,34.42
2022-11-28T20:55:01.623Z,35.33
2022-11-28T20:57:46.497Z,36.08
2022-11-28T21:00:31.380Z,34.40
2022-11-28T21:03:16.418Z,33.10
2022-11-28T21:06:01.852Z,30.75
2022-11-28T21:08:46.899Z,30.40
2022-11-28T21:11:55.676Z,29.45
2022-11-28T21:14:36.709Z,23.98
2022-11-28T21:17:22.205Z,21.27
2022-11-28T21:20:08.047Z,30.77
2022-11-28T21:22:52.885Z,26.83
2022-11-28T21:25:39.543Z,24.35
2022-11-28T21:28:24.458Z,22.60
2022-11-28T21:31:12.802Z,22.17
2022-11-28T21:33:58.794Z,26.27
2022-11-28T21:36:43.908Z,23.00
2022-11-28T21:39:28.989Z,20.40
2022-11-28T21:42:18.920Z,24.40
2022-11-28T21:45:05.700Z,21.57
2022-11-28T21:47:51.385Z,25.55
2022-11-28T21:50:36.384Z,17.48
2022-11-28T21:53:21.396Z,16.77
2022-11-28T21:56:06.596Z,19.02
2022-11-28T21:58:51.644Z,13.90
2022-11-28T22:01:36.830Z,15.07
2022-11-28T22:04:21.930Z,17.40
2022-11-28T22:07:07.012Z,15.45
2022-11-28T22:09:51.845Z,17.75
2022-11-28T22:12:36.963Z,13.40
2022-11-28T22:15:22.067Z,14.85
2022-11-28T22:18:06.929Z,13.10
2022-11-28T22:20:53.217Z,14.02
2022-11-28T22:23:39.405Z,13.40
2022-11-28T22:26:24.475Z,13.10
2022-11-28T22:29:09.589Z,19.23
2022-11-28T22:31:54.986Z,13.73
2022-11-28T22:34:40.367Z,15.80
2022-11-28T22:37:25.281Z,14.38
2022-11-28T22:40:11.035Z,12.57
2022-11-28T22:42:56.645Z,10.82
2022-11-28T22:45:41.772Z,12.48
2022-11-28T22:48:28.803Z,10.23
2022-11-28T22:51:17.549Z,11.43
2022-11-28T22:54:03.060Z,14.97
2022-11-28T22:56:48.240Z,11.38
2022-11-28T22:59:35.053Z,9.95
2022-11-28T23:02:20.213Z,13.30
2022-11-28T23:05:05.218Z,13.40
2022-11-28T23:07:50.160Z,16.33
2022-11-28T23:10:37.888Z,15.48
2022-11-28T23:13:23.056Z,16.13
2022-11-28T23:16:14.328Z,21.00
2022-11-28T23:19:01.631Z,24.98
2022-11-28T23:21:49.033Z,23.43
2022-11-28T23:24:33.784Z,21.25
2022-11-28T23:27:19.047Z,22.42
2022-11-28T23:30:04.809Z,25.08
2022-11-28T23:32:49.659Z,21.15
2022-11-28T23:35:34.614Z,17.30
2022-11-28T23:38:19.508Z,14.27
2022-11-28T23:41:04.639Z,11.43
2022-11-28T23:43:50.142Z,7.68
2022-11-28T23:46:35.615Z,9.63
2022-11-28T23:49:20.641Z,7.47
2022-11-28T23:52:05.863Z,9.82
2022-11-28T23:54:51.034Z,12.98
2022-11-28T23:57:36.234Z,7.47
